sensor_id;sensor_type;location;lat;lon;timestamp;temperature;humidity
20672;DHT22;10495;50.922;4.760;2023-03-23T00:01:15;14.40;85.40
20672;DHT22;10495;50.922;4.760;2023-03-23T00:03:49;14.30;86.30
20672;DHT22;10495;50.922;4.760;2023-03-23T00:06:17;14.40;85.80
20672;DHT22;10495;50.922;4.760;2023-03-23T00:08:47;14.50;85.60
20672;DHT22;10495;50.922;4.760;2023-03-23T00:11:17;14.50;85.10
20672;DHT22;10495;50.922;4.760;2023-03-23T00:13:45;14.40;85.70
20672;DHT22;10495;50.922;4.760;2023-03-23T00:16:12;14.40;86.30
20672;DHT22;10495;50.922;4.760;2023-03-23T00:18:55;14.60;85.70
20672;DHT22;10495;50.922;4.760;2023-03-23T00:21:22;14.50;85.60
20672;DHT22;10495;50.922;4.760;2023-03-23T00:24:02;14.50;85.60
20672;DHT22;10495;50.922;4.760;2023-03-23T00:26:29;14.50;85.40
20672;DHT22;10495;50.922;4.760;2023-03-23T00:28:59;14.70;85.00
20672;DHT22;10495;50.922;4.760;2023-03-23T00:31:26;14.50;85.20
20672;DHT22;10495;50.922;4.760;2023-03-23T00:33:58;14.40;85.90
20672;DHT22;10495;50.922;4.760;2023-03-23T00:36:24;14.70;85.20
20672;DHT22;10495;50.922;4.760;2023-03-23T00:38:51;14.50;85.70
20672;DHT22;10495;50.922;4.760;2023-03-23T00:41:17;14.60;85.60
20672;DHT22;10495;50.922;4.760;2023-03-23T00:43:42;14.70;85.00
20672;DHT22;10495;50.922;4.760;2023-03-23T00:46:09;14.50;85.80
20672;DHT22;10495;50.922;4.760;2023-03-23T00:48:36;14.40;85.80
20672;DHT22;10495;50.922;4.760;2023-03-23T00:51:11;14.50;86.00
20672;DHT22;10495;50.922;4.760;2023-03-23T00:53:38;14.40;86.30
20672;DHT22;10495;50.922;4.760;2023-03-23T00:56:03;14.40;86.10
20672;DHT22;10495;50.922;4.760;2023-03-23T00:58:29;14.30;86.20
20672;DHT22;10495;50.922;4.760;2023-03-23T01:00:55;14.40;86.20
20672;DHT22;10495;50.922;4.760;2023-03-23T01:03:22;14.50;85.70
20672;DHT22;10495;50.922;4.760;2023-03-23T01:05:52;14.40;85.50
20672;DHT22;10495;50.922;4.760;2023-03-23T01:08:18;14.40;85.70
20672;DHT22;10495;50.922;4.760;2023-03-23T01:10:45;14.40;85.80
20672;DHT22;10495;50.922;4.760;2023-03-23T01:13:11;14.50;85.90
20672;DHT22;10495;50.922;4.760;2023-03-23T01:15:37;14.30;86.10
20672;DHT22;10495;50.922;4.760;2023-03-23T01:18:03;14.30;86.00
20672;DHT22;10495;50.922;4.760;2023-03-23T01:20:29;14.40;85.60
20672;DHT22;10495;50.922;4.760;2023-03-23T01:22:57;14.70;84.90
20672;DHT22;10495;50.922;4.760;2023-03-23T01:25:27;14.60;85.20
20672;DHT22;10495;50.922;4.760;2023-03-23T01:27:53;14.60;85.20
20672;DHT22;10495;50.922;4.760;2023-03-23T01:30:19;14.70;85.00
20672;DHT22;10495;50.922;4.760;2023-03-23T01:32:45;14.80;84.70
20672;DHT22;10495;50.922;4.760;2023-03-23T01:35:12;14.90;84.30
20672;DHT22;10495;50.922;4.760;2023-03-23T01:37:38;14.90;84.30
20672;DHT22;10495;50.922;4.760;2023-03-23T01:40:04;14.70;84.50
20672;DHT22;10495;50.922;4.760;2023-03-23T01:42:33;14.70;84.60
20672;DHT22;10495;50.922;4.760;2023-03-23T01:47:51;14.80;84.50
20672;DHT22;10495;50.922;4.760;2023-03-23T01:50:19;14.70;84.60
20672;DHT22;10495;50.922;4.760;2023-03-23T01:52:48;14.50;85.10
20672;DHT22;10495;50.922;4.760;2023-03-23T01:55:14;14.50;85.30
20672;DHT22;10495;50.922;4.760;2023-03-23T01:57:41;14.50;85.20
20672;DHT22;10495;50.922;4.760;2023-03-23T02:00:08;14.40;85.80
20672;DHT22;10495;50.922;4.760;2023-03-23T02:02:44;14.30;85.90
20672;DHT22;10495;50.922;4.760;2023-03-23T02:05:26;14.30;85.80
20672;DHT22;10495;50.922;4.760;2023-03-23T02:07:54;14.40;85.20
20672;DHT22;10495;50.922;4.760;2023-03-23T02:10:24;14.30;85.30
20672;DHT22;10495;50.922;4.760;2023-03-23T02:12:50;14.60;84.80
20672;DHT22;10495;50.922;4.760;2023-03-23T02:15:16;14.50;84.70
20672;DHT22;10495;50.922;4.760;2023-03-23T02:17:52;14.50;84.70
20672;DHT22;10495;50.922;4.760;2023-03-23T02:20:33;14.30;85.50
20672;DHT22;10495;50.922;4.760;2023-03-23T02:26:29;14.50;84.90
20672;DHT22;10495;50.922;4.760;2023-03-23T02:31:52;14.60;84.30
20672;DHT22;10495;50.922;4.760;2023-03-23T02:34:43;14.60;84.10
20672;DHT22;10495;50.922;4.760;2023-03-23T02:37:21;14.50;84.50
20672;DHT22;10495;50.922;4.760;2023-03-23T02:39:52;14.50;84.20
20672;DHT22;10495;50.922;4.760;2023-03-23T02:42:26;14.60;83.50
20672;DHT22;10495;50.922;4.760;2023-03-23T02:44:54;14.50;84.10
20672;DHT22;10495;50.922;4.760;2023-03-23T02:47:23;14.40;84.20
20672;DHT22;10495;50.922;4.760;2023-03-23T02:49:52;14.60;83.60
20672;DHT22;10495;50.922;4.760;2023-03-23T02:52:22;14.70;83.40
20672;DHT22;10495;50.922;4.760;2023-03-23T02:54:49;14.70;82.80
20672;DHT22;10495;50.922;4.760;2023-03-23T02:57:16;14.60;82.60
20672;DHT22;10495;50.922;4.760;2023-03-23T02:59:42;14.60;82.90
20672;DHT22;10495;50.922;4.760;2023-03-23T03:02:18;14.50;83.20
20672;DHT22;10495;50.922;4.760;2023-03-23T03:05:03;14.50;83.20
20672;DHT22;10495;50.922;4.760;2023-03-23T03:18:22;14.70;82.00
20672;DHT22;10495;50.922;4.760;2023-03-23T03:20:53;14.80;81.90
20672;DHT22;10495;50.922;4.760;2023-03-23T03:23:22;14.70;81.90
20672;DHT22;10495;50.922;4.760;2023-03-23T03:25:48;14.60;81.90
20672;DHT22;10495;50.922;4.760;2023-03-23T03:28:17;14.50;82.60
20672;DHT22;10495;50.922;4.760;2023-03-23T03:30:49;14.70;81.90
20672;DHT22;10495;50.922;4.760;2023-03-23T03:33:17;14.60;82.20
20672;DHT22;10495;50.922;4.760;2023-03-23T03:35:43;14.60;82.20
20672;DHT22;10495;50.922;4.760;2023-03-23T03:38:11;14.80;82.10
20672;DHT22;10495;50.922;4.760;2023-03-23T03:40:37;14.70;81.70
20672;DHT22;10495;50.922;4.760;2023-03-23T03:43:04;14.70;81.80
20672;DHT22;10495;50.922;4.760;2023-03-23T03:45:31;14.70;81.90
20672;DHT22;10495;50.922;4.760;2023-03-23T03:47:56;14.60;82.20
20672;DHT22;10495;50.922;4.760;2023-03-23T03:50:22;14.60;82.40
20672;DHT22;10495;50.922;4.760;2023-03-23T03:52:48;14.30;83.30
20672;DHT22;10495;50.922;4.760;2023-03-23T03:55:14;14.20;83.90
20672;DHT22;10495;50.922;4.760;2023-03-23T03:57:41;14.20;83.90
20672;DHT22;10495;50.922;4.760;2023-03-23T04:00:08;14.40;83.60
20672;DHT22;10495;50.922;4.760;2023-03-23T04:02:46;14.50;83.30
20672;DHT22;10495;50.922;4.760;2023-03-23T04:05:19;14.40;83.30
20672;DHT22;10495;50.922;4.760;2023-03-23T04:07:45;14.60;82.50
20672;DHT22;10495;50.922;4.760;2023-03-23T04:10:14;14.70;82.50
20672;DHT22;10495;50.922;4.760;2023-03-23T04:12:40;14.70;82.50
20672;DHT22;10495;50.922;4.760;2023-03-23T04:15:06;14.60;82.30
20672;DHT22;10495;50.922;4.760;2023-03-23T04:17:33;14.30;83.50
20672;DHT22;10495;50.922;4.760;2023-03-23T04:19:59;14.50;83.00
20672;DHT22;10495;50.922;4.760;2023-03-23T04:22:26;14.40;83.00
20672;DHT22;10495;50.922;4.760;2023-03-23T04:24:57;14.50;82.70
20672;DHT22;10495;50.922;4.760;2023-03-23T04:27:27;14.60;82.30
20672;DHT22;10495;50.922;4.760;2023-03-23T04:29:56;14.60;82.30
20672;DHT22;10495;50.922;4.760;2023-03-23T04:32:26;14.50;82.30
20672;DHT22;10495;50.922;4.760;2023-03-23T04:34:55;14.50;82.50
20672;DHT22;10495;50.922;4.760;2023-03-23T04:37:22;14.70;81.90
20672;DHT22;10495;50.922;4.760;2023-03-23T04:39:52;14.50;81.70
20672;DHT22;10495;50.922;4.760;2023-03-23T04:42:26;14.40;82.10
20672;DHT22;10495;50.922;4.760;2023-03-23T04:44:52;14.40;82.00
20672;DHT22;10495;50.922;4.760;2023-03-23T04:47:20;14.30;82.30
20672;DHT22;10495;50.922;4.760;2023-03-23T04:49:46;14.50;81.90
20672;DHT22;10495;50.922;4.760;2023-03-23T04:52:12;14.40;81.60
20672;DHT22;10495;50.922;4.760;2023-03-23T04:54:39;14.50;81.70
20672;DHT22;10495;50.922;4.760;2023-03-23T04:57:05;14.60;81.50
20672;DHT22;10495;50.922;4.760;2023-03-23T04:59:30;14.60;80.60
20672;DHT22;10495;50.922;4.760;2023-03-23T05:01:56;14.50;81.00
20672;DHT22;10495;50.922;4.760;2023-03-23T05:04:22;14.50;80.90
20672;DHT22;10495;50.922;4.760;2023-03-23T05:06:51;14.40;81.30
20672;DHT22;10495;50.922;4.760;2023-03-23T05:09:17;14.50;80.70
20672;DHT22;10495;50.922;4.760;2023-03-23T05:11:42;14.40;81.00
20672;DHT22;10495;50.922;4.760;2023-03-23T05:14:08;14.40;80.90
20672;DHT22;10495;50.922;4.760;2023-03-23T05:16:35;14.50;80.80
20672;DHT22;10495;50.922;4.760;2023-03-23T05:19:02;14.60;80.20
20672;DHT22;10495;50.922;4.760;2023-03-23T05:21:27;14.40;80.60
20672;DHT22;10495;50.922;4.760;2023-03-23T05:23:53;14.10;81.50
20672;DHT22;10495;50.922;4.760;2023-03-23T05:26:20;14.20;81.40
20672;DHT22;10495;50.922;4.760;2023-03-23T05:28:46;14.30;81.10
20672;DHT22;10495;50.922;4.760;2023-03-23T05:31:12;14.30;81.00
20672;DHT22;10495;50.922;4.760;2023-03-23T05:33:38;14.10;81.90
20672;DHT22;10495;50.922;4.760;2023-03-23T05:36:04;13.80;82.90
20672;DHT22;10495;50.922;4.760;2023-03-23T05:38:32;14.00;82.80
20672;DHT22;10495;50.922;4.760;2023-03-23T05:41:00;14.00;82.60
20672;DHT22;10495;50.922;4.760;2023-03-23T05:43:26;13.90;82.90
20672;DHT22;10495;50.922;4.760;2023-03-23T05:45:52;14.00;82.30
20672;DHT22;10495;50.922;4.760;2023-03-23T05:48:18;14.20;82.30
20672;DHT22;10495;50.922;4.760;2023-03-23T05:50:43;14.20;81.90
20672;DHT22;10495;50.922;4.760;2023-03-23T05:53:09;14.20;81.90
20672;DHT22;10495;50.922;4.760;2023-03-23T05:55:35;14.00;82.50
20672;DHT22;10495;50.922;4.760;2023-03-23T05:58:01;13.90;82.80
20672;DHT22;10495;50.922;4.760;2023-03-23T06:00:27;14.00;82.50
20672;DHT22;10495;50.922;4.760;2023-03-23T06:02:56;14.00;83.20
20672;DHT22;10495;50.922;4.760;2023-03-23T06:05:22;14.00;82.50
20672;DHT22;10495;50.922;4.760;2023-03-23T06:07:49;13.90;83.10
20672;DHT22;10495;50.922;4.760;2023-03-23T06:10:15;14.10;82.40
20672;DHT22;10495;50.922;4.760;2023-03-23T06:12:42;14.20;82.30
20672;DHT22;10495;50.922;4.760;2023-03-23T06:15:08;14.00;82.40
20672;DHT22;10495;50.922;4.760;2023-03-23T06:17:34;14.30;81.60
20672;DHT22;10495;50.922;4.760;2023-03-23T06:20:02;14.20;81.30
20672;DHT22;10495;50.922;4.760;2023-03-23T06:22:30;14.20;81.30
20672;DHT22;10495;50.922;4.760;2023-03-23T06:24:55;14.10;82.30
20672;DHT22;10495;50.922;4.760;2023-03-23T06:27:23;14.20;81.90
20672;DHT22;10495;50.922;4.760;2023-03-23T06:29:49;14.30;81.70
20672;DHT22;10495;50.922;4.760;2023-03-23T06:32:14;14.10;82.00
20672;DHT22;10495;50.922;4.760;2023-03-23T06:34:40;14.20;82.00
20672;DHT22;10495;50.922;4.760;2023-03-23T06:37:09;14.10;82.00
20672;DHT22;10495;50.922;4.760;2023-03-23T06:39:35;14.10;82.00
20672;DHT22;10495;50.922;4.760;2023-03-23T06:42:03;14.30;81.30
20672;DHT22;10495;50.922;4.760;2023-03-23T06:44:29;14.50;80.80
20672;DHT22;10495;50.922;4.760;2023-03-23T06:46:55;14.50;80.70
20672;DHT22;10495;50.922;4.760;2023-03-23T06:49:20;14.50;79.90
20672;DHT22;10495;50.922;4.760;2023-03-23T06:51:46;14.50;80.40
20672;DHT22;10495;50.922;4.760;2023-03-23T06:54:12;14.40;80.70
20672;DHT22;10495;50.922;4.760;2023-03-23T06:56:37;14.20;81.20
20672;DHT22;10495;50.922;4.760;2023-03-23T06:59:03;14.30;81.30
20672;DHT22;10495;50.922;4.760;2023-03-23T07:01:28;14.50;80.60
20672;DHT22;10495;50.922;4.760;2023-03-23T07:03:55;14.50;80.10
20672;DHT22;10495;50.922;4.760;2023-03-23T07:06:21;14.20;81.00
20672;DHT22;10495;50.922;4.760;2023-03-23T07:08:47;14.30;81.10
20672;DHT22;10495;50.922;4.760;2023-03-23T07:11:13;14.40;81.20
20672;DHT22;10495;50.922;4.760;2023-03-23T07:13:39;14.50;81.10
20672;DHT22;10495;50.922;4.760;2023-03-23T07:16:05;14.40;81.50
20672;DHT22;10495;50.922;4.760;2023-03-23T07:18:31;14.60;81.60
20672;DHT22;10495;50.922;4.760;2023-03-23T07:20:57;14.60;82.60
20672;DHT22;10495;50.922;4.760;2023-03-23T07:23:23;14.40;82.80
20672;DHT22;10495;50.922;4.760;2023-03-23T07:25:49;14.40;83.60
20672;DHT22;10495;50.922;4.760;2023-03-23T07:28:15;14.20;84.80
20672;DHT22;10495;50.922;4.760;2023-03-23T07:30:41;14.40;85.00
20672;DHT22;10495;50.922;4.760;2023-03-23T07:33:08;14.30;85.50
20672;DHT22;10495;50.922;4.760;2023-03-23T07:35:34;14.00;84.30
20672;DHT22;10495;50.922;4.760;2023-03-23T07:38:01;13.70;85.50
20672;DHT22;10495;50.922;4.760;2023-03-23T07:40:28;13.50;86.60
20672;DHT22;10495;50.922;4.760;2023-03-23T07:42:56;13.30;87.30
20672;DHT22;10495;50.922;4.760;2023-03-23T07:45:22;13.30;87.90
20672;DHT22;10495;50.922;4.760;2023-03-23T07:47:48;13.00;89.60
20672;DHT22;10495;50.922;4.760;2023-03-23T07:50:14;13.00;89.00
20672;DHT22;10495;50.922;4.760;2023-03-23T07:52:40;12.90;89.70
20672;DHT22;10495;50.922;4.760;2023-03-23T07:55:08;12.80;89.80
20672;DHT22;10495;50.922;4.760;2023-03-23T07:57:34;12.70;90.00
20672;DHT22;10495;50.922;4.760;2023-03-23T08:00:00;12.80;89.80
20672;DHT22;10495;50.922;4.760;2023-03-23T08:02:26;12.60;89.90
20672;DHT22;10495;50.922;4.760;2023-03-23T08:04:52;12.60;90.30
20672;DHT22;10495;50.922;4.760;2023-03-23T08:07:19;12.50;90.30
20672;DHT22;10495;50.922;4.760;2023-03-23T08:09:46;12.50;90.30
20672;DHT22;10495;50.922;4.760;2023-03-23T08:12:12;12.40;90.40
20672;DHT22;10495;50.922;4.760;2023-03-23T08:14:37;12.40;90.40
20672;DHT22;10495;50.922;4.760;2023-03-23T08:17:03;12.50;90.50
20672;DHT22;10495;50.922;4.760;2023-03-23T08:19:29;12.60;90.40
20672;DHT22;10495;50.922;4.760;2023-03-23T08:21:55;12.60;90.50
20672;DHT22;10495;50.922;4.760;2023-03-23T08:24:21;12.50;90.80
20672;DHT22;10495;50.922;4.760;2023-03-23T08:26:47;12.50;90.90
20672;DHT22;10495;50.922;4.760;2023-03-23T08:29:12;12.60;91.20
20672;DHT22;10495;50.922;4.760;2023-03-23T08:31:39;12.50;91.30
20672;DHT22;10495;50.922;4.760;2023-03-23T08:34:05;12.60;91.20
20672;DHT22;10495;50.922;4.760;2023-03-23T08:36:34;12.70;91.20
20672;DHT22;10495;50.922;4.760;2023-03-23T08:39:00;12.90;91.10
20672;DHT22;10495;50.922;4.760;2023-03-23T08:41:26;13.10;90.90
20672;DHT22;10495;50.922;4.760;2023-03-23T08:43:52;13.40;90.70
20672;DHT22;10495;50.922;4.760;2023-03-23T08:46:18;13.40;90.10
20672;DHT22;10495;50.922;4.760;2023-03-23T08:48:45;13.40;90.50
20672;DHT22;10495;50.922;4.760;2023-03-23T08:51:11;13.40;90.40
20672;DHT22;10495;50.922;4.760;2023-03-23T08:53:38;13.60;88.70
20672;DHT22;10495;50.922;4.760;2023-03-23T08:56:05;13.60;88.70
20672;DHT22;10495;50.922;4.760;2023-03-23T08:58:32;13.40;89.00
20672;DHT22;10495;50.922;4.760;2023-03-23T09:00:58;13.30;89.30
20672;DHT22;10495;50.922;4.760;2023-03-23T09:03:25;13.40;89.20
20672;DHT22;10495;50.922;4.760;2023-03-23T09:05:51;13.30;89.60
20672;DHT22;10495;50.922;4.760;2023-03-23T09:08:16;13.40;89.40
20672;DHT22;10495;50.922;4.760;2023-03-23T09:10:43;13.60;88.60
20672;DHT22;10495;50.922;4.760;2023-03-23T09:13:08;13.30;89.10
20672;DHT22;10495;50.922;4.760;2023-03-23T09:15:34;13.30;89.20
20672;DHT22;10495;50.922;4.760;2023-03-23T09:17:59;13.50;88.80
20672;DHT22;10495;50.922;4.760;2023-03-23T09:20:27;13.50;88.90
20672;DHT22;10495;50.922;4.760;2023-03-23T09:22:55;13.50;89.10
20672;DHT22;10495;50.922;4.760;2023-03-23T09:25:23;13.30;89.70
20672;DHT22;10495;50.922;4.760;2023-03-23T09:27:53;13.50;89.10
20672;DHT22;10495;50.922;4.760;2023-03-23T09:30:23;13.30;89.50
20672;DHT22;10495;50.922;4.760;2023-03-23T09:32:49;13.20;90.00
20672;DHT22;10495;50.922;4.760;2023-03-23T09:35:15;13.00;90.50
20672;DHT22;10495;50.922;4.760;2023-03-23T09:37:43;13.20;90.30
20672;DHT22;10495;50.922;4.760;2023-03-23T09:49:37;13.20;90.80
20672;DHT22;10495;50.922;4.760;2023-03-23T09:52:52;13.20;91.10
20672;DHT22;10495;50.922;4.760;2023-03-23T09:55:21;13.40;91.00
20672;DHT22;10495;50.922;4.760;2023-03-23T09:58:18;13.40;91.00
20672;DHT22;10495;50.922;4.760;2023-03-23T10:01:41;13.60;90.90
20672;DHT22;10495;50.922;4.760;2023-03-23T10:03:45;13.80;91.20
20672;DHT22;10495;50.922;4.760;2023-03-23T10:06:13;14.30;91.70
20672;DHT22;10495;50.922;4.760;2023-03-23T10:08:54;14.70;90.60
20672;DHT22;10495;50.922;4.760;2023-03-23T10:11:30;14.90;90.50
20672;DHT22;10495;50.922;4.760;2023-03-23T10:16:29;15.10;90.30
20672;DHT22;10495;50.922;4.760;2023-03-23T10:21:40;15.40;89.80
20672;DHT22;10495;50.922;4.760;2023-03-23T10:24:11;15.40;89.40
20672;DHT22;10495;50.922;4.760;2023-03-23T10:32:18;15.60;87.70
20672;DHT22;10495;50.922;4.760;2023-03-23T10:35:03;15.40;88.90
20672;DHT22;10495;50.922;4.760;2023-03-23T10:37:34;15.40;88.90
20672;DHT22;10495;50.922;4.760;2023-03-23T10:40:05;15.30;88.90
20672;DHT22;10495;50.922;4.760;2023-03-23T10:42:36;15.10;89.70
20672;DHT22;10495;50.922;4.760;2023-03-23T10:45:25;15.20;90.40
20672;DHT22;10495;50.922;4.760;2023-03-23T10:48:00;15.60;90.10
20672;DHT22;10495;50.922;4.760;2023-03-23T10:50:31;15.70;88.60
20672;DHT22;10495;50.922;4.760;2023-03-23T10:52:58;16.10;87.00
20672;DHT22;10495;50.922;4.760;2023-03-23T10:55:39;16.10;88.00
20672;DHT22;10495;50.922;4.760;2023-03-23T10:58:29;16.00;87.40
20672;DHT22;10495;50.922;4.760;2023-03-23T11:00:55;16.10;87.10
20672;DHT22;10495;50.922;4.760;2023-03-23T11:03:38;16.40;86.50
20672;DHT22;10495;50.922;4.760;2023-03-23T11:06:19;16.70;87.10
20672;DHT22;10495;50.922;4.760;2023-03-23T11:08:59;17.00;87.40
20672;DHT22;10495;50.922;4.760;2023-03-23T11:11:31;17.20;85.40
20672;DHT22;10495;50.922;4.760;2023-03-23T11:14:00;17.20;85.20
20672;DHT22;10495;50.922;4.760;2023-03-23T11:16:31;17.10;84.90
20672;DHT22;10495;50.922;4.760;2023-03-23T11:18:59;17.10;85.00
20672;DHT22;10495;50.922;4.760;2023-03-23T11:21:26;17.30;84.10
20672;DHT22;10495;50.922;4.760;2023-03-23T11:23:58;17.20;83.60
20672;DHT22;10495;50.922;4.760;2023-03-23T11:26:33;17.20;82.10
20672;DHT22;10495;50.922;4.760;2023-03-23T11:29:03;17.20;84.10
20672;DHT22;10495;50.922;4.760;2023-03-23T11:31:36;17.20;82.80
20672;DHT22;10495;50.922;4.760;2023-03-23T11:34:29;17.00;82.00
20672;DHT22;10495;50.922;4.760;2023-03-23T11:37:05;17.00;83.00
20672;DHT22;10495;50.922;4.760;2023-03-23T11:39:34;17.00;82.50
20672;DHT22;10495;50.922;4.760;2023-03-23T11:42:11;16.90;82.20
20672;DHT22;10495;50.922;4.760;2023-03-23T11:44:45;17.00;81.70
20672;DHT22;10495;50.922;4.760;2023-03-23T11:47:30;17.00;81.70
20672;DHT22;10495;50.922;4.760;2023-03-23T11:58:28;17.00;81.10
20672;DHT22;10495;50.922;4.760;2023-03-23T12:01:19;17.30;81.10
20672;DHT22;10495;50.922;4.760;2023-03-23T12:26:19;17.50;78.10
20672;DHT22;10495;50.922;4.760;2023-03-23T12:37:06;17.20;78.00
20672;DHT22;10495;50.922;4.760;2023-03-23T12:42:52;17.20;77.40
20672;DHT22;10495;50.922;4.760;2023-03-23T12:48:02;17.30;77.10
20672;DHT22;10495;50.922;4.760;2023-03-23T12:50:40;17.30;75.90
20672;DHT22;10495;50.922;4.760;2023-03-23T12:53:25;17.30;76.50
20672;DHT22;10495;50.922;4.760;2023-03-23T12:56:25;17.20;78.00
20672;DHT22;10495;50.922;4.760;2023-03-23T12:59:04;16.90;78.70
20672;DHT22;10495;50.922;4.760;2023-03-23T13:01:38;17.00;78.50
20672;DHT22;10495;50.922;4.760;2023-03-23T13:04:32;17.10;78.00
20672;DHT22;10495;50.922;4.760;2023-03-23T13:07:02;17.00;78.30
20672;DHT22;10495;50.922;4.760;2023-03-23T13:12:03;17.30;77.90
20672;DHT22;10495;50.922;4.760;2023-03-23T13:22:35;17.30;78.00
20672;DHT22;10495;50.922;4.760;2023-03-23T13:25:08;17.50;78.50
20672;DHT22;10495;50.922;4.760;2023-03-23T13:27:34;17.80;77.30
20672;DHT22;10495;50.922;4.760;2023-03-23T13:30:01;17.70;77.70
20672;DHT22;10495;50.922;4.760;2023-03-23T13:32:37;17.40;77.20
20672;DHT22;10495;50.922;4.760;2023-03-23T13:35:04;17.40;78.60
20672;DHT22;10495;50.922;4.760;2023-03-23T13:37:32;17.50;78.00
20672;DHT22;10495;50.922;4.760;2023-03-23T13:40:16;17.60;77.90
20672;DHT22;10495;50.922;4.760;2023-03-23T13:43:03;17.50;77.80
20672;DHT22;10495;50.922;4.760;2023-03-23T13:48:23;17.50;77.40
20672;DHT22;10495;50.922;4.760;2023-03-23T13:50:58;17.30;77.80
20672;DHT22;10495;50.922;4.760;2023-03-23T13:53:35;17.30;78.90
20672;DHT22;10495;50.922;4.760;2023-03-23T13:59:15;17.20;78.60
20672;DHT22;10495;50.922;4.760;2023-03-23T14:01:41;17.10;78.70
20672;DHT22;10495;50.922;4.760;2023-03-23T14:04:16;17.10;79.00
20672;DHT22;10495;50.922;4.760;2023-03-23T14:06:44;17.10;78.50
20672;DHT22;10495;50.922;4.760;2023-03-23T14:09:33;17.30;78.70
20672;DHT22;10495;50.922;4.760;2023-03-23T14:12:05;17.40;77.70
20672;DHT22;10495;50.922;4.760;2023-03-23T14:14:41;17.60;78.10
20672;DHT22;10495;50.922;4.760;2023-03-23T14:17:17;17.60;76.30
20672;DHT22;10495;50.922;4.760;2023-03-23T14:19:50;17.90;75.90
20672;DHT22;10495;50.922;4.760;2023-03-23T14:24:50;17.80;76.10
20672;DHT22;10495;50.922;4.760;2023-03-23T14:27:20;17.60;77.90
20672;DHT22;10495;50.922;4.760;2023-03-23T14:29:57;17.20;81.00
20672;DHT22;10495;50.922;4.760;2023-03-23T14:32:23;16.90;83.70
20672;DHT22;10495;50.922;4.760;2023-03-23T14:34:52;16.80;84.20
20672;DHT22;10495;50.922;4.760;2023-03-23T14:37:18;16.90;83.00
20672;DHT22;10495;50.922;4.760;2023-03-23T14:39:52;16.80;82.70
20672;DHT22;10495;50.922;4.760;2023-03-23T14:42:36;16.70;82.50
20672;DHT22;10495;50.922;4.760;2023-03-23T14:45:06;16.70;83.30
20672;DHT22;10495;50.922;4.760;2023-03-23T14:47:38;16.60;84.40
20672;DHT22;10495;50.922;4.760;2023-03-23T14:50:18;16.70;83.60
20672;DHT22;10495;50.922;4.760;2023-03-23T14:52:48;16.80;83.70
20672;DHT22;10495;50.922;4.760;2023-03-23T14:55:20;16.90;82.70
20672;DHT22;10495;50.922;4.760;2023-03-23T14:57:47;16.90;82.90
20672;DHT22;10495;50.922;4.760;2023-03-23T15:00:21;16.80;82.30
20672;DHT22;10495;50.922;4.760;2023-03-23T15:02:53;16.70;82.40
20672;DHT22;10495;50.922;4.760;2023-03-23T15:05:31;16.70;82.50
20672;DHT22;10495;50.922;4.760;2023-03-23T15:08:23;16.50;82.70
20672;DHT22;10495;50.922;4.760;2023-03-23T15:10:57;16.50;82.30
20672;DHT22;10495;50.922;4.760;2023-03-23T15:13:24;16.60;82.10
20672;DHT22;10495;50.922;4.760;2023-03-23T15:15:50;16.60;83.20
20672;DHT22;10495;50.922;4.760;2023-03-23T15:18:37;16.40;83.50
20672;DHT22;10495;50.922;4.760;2023-03-23T15:21:33;16.40;84.20
20672;DHT22;10495;50.922;4.760;2023-03-23T15:23:59;16.50;83.80
20672;DHT22;10495;50.922;4.760;2023-03-23T15:26:43;16.80;83.60
20672;DHT22;10495;50.922;4.760;2023-03-23T15:29:20;16.90;82.70
20672;DHT22;10495;50.922;4.760;2023-03-23T15:31:53;17.10;80.70
20672;DHT22;10495;50.922;4.760;2023-03-23T15:34:40;16.80;80.40
20672;DHT22;10495;50.922;4.760;2023-03-23T15:37:28;16.80;80.10
20672;DHT22;10495;50.922;4.760;2023-03-23T15:39:56;16.60;79.20
20672;DHT22;10495;50.922;4.760;2023-03-23T15:42:28;16.60;80.50
20672;DHT22;10495;50.922;4.760;2023-03-23T15:45:26;16.90;79.70
20672;DHT22;10495;50.922;4.760;2023-03-23T15:48:12;16.90;78.90
20672;DHT22;10495;50.922;4.760;2023-03-23T15:50:46;17.00;78.10
20672;DHT22;10495;50.922;4.760;2023-03-23T15:53:39;17.20;78.40
20672;DHT22;10495;50.922;4.760;2023-03-23T15:56:10;17.30;78.80
20672;DHT22;10495;50.922;4.760;2023-03-23T15:58:45;17.10;78.40
20672;DHT22;10495;50.922;4.760;2023-03-23T16:01:20;17.30;77.40
20672;DHT22;10495;50.922;4.760;2023-03-23T16:04:04;17.20;77.70
20672;DHT22;10495;50.922;4.760;2023-03-23T16:06:40;17.20;77.40
20672;DHT22;10495;50.922;4.760;2023-03-23T16:09:11;17.20;77.40
20672;DHT22;10495;50.922;4.760;2023-03-23T16:11:37;17.20;77.90
20672;DHT22;10495;50.922;4.760;2023-03-23T16:14:03;17.10;77.50
20672;DHT22;10495;50.922;4.760;2023-03-23T16:16:33;16.90;77.00
20672;DHT22;10495;50.922;4.760;2023-03-23T16:18:59;16.80;77.90
20672;DHT22;10495;50.922;4.760;2023-03-23T16:21:25;16.90;78.20
20672;DHT22;10495;50.922;4.760;2023-03-23T16:23:50;17.00;77.90
20672;DHT22;10495;50.922;4.760;2023-03-23T16:26:16;17.10;77.50
20672;DHT22;10495;50.922;4.760;2023-03-23T16:28:43;17.00;77.90
20672;DHT22;10495;50.922;4.760;2023-03-23T16:31:09;17.00;78.90
20672;DHT22;10495;50.922;4.760;2023-03-23T16:33:35;16.80;77.70
20672;DHT22;10495;50.922;4.760;2023-03-23T16:36:01;16.60;77.10
20672;DHT22;10495;50.922;4.760;2023-03-23T16:38:27;16.70;77.30
20672;DHT22;10495;50.922;4.760;2023-03-23T16:40:53;16.90;76.20
20672;DHT22;10495;50.922;4.760;2023-03-23T16:43:19;16.70;77.20
20672;DHT22;10495;50.922;4.760;2023-03-23T16:45:45;16.90;76.50
20672;DHT22;10495;50.922;4.760;2023-03-23T16:48:15;16.70;77.20
20672;DHT22;10495;50.922;4.760;2023-03-23T16:50:43;16.80;76.80
20672;DHT22;10495;50.922;4.760;2023-03-23T16:53:09;16.90;76.40
20672;DHT22;10495;50.922;4.760;2023-03-23T16:55:36;16.80;76.60
20672;DHT22;10495;50.922;4.760;2023-03-23T16:58:03;17.00;75.80
20672;DHT22;10495;50.922;4.760;2023-03-23T17:00:29;16.90;75.70
20672;DHT22;10495;50.922;4.760;2023-03-23T17:02:55;16.80;75.40
20672;DHT22;10495;50.922;4.760;2023-03-23T17:05:26;16.70;76.10
20672;DHT22;10495;50.922;4.760;2023-03-23T17:07:53;16.70;75.40
20672;DHT22;10495;50.922;4.760;2023-03-23T17:10:24;16.60;76.10
20672;DHT22;10495;50.922;4.760;2023-03-23T17:12:52;16.40;76.60
20672;DHT22;10495;50.922;4.760;2023-03-23T17:15:17;16.30;76.40
20672;DHT22;10495;50.922;4.760;2023-03-23T17:17:44;16.30;76.80
20672;DHT22;10495;50.922;4.760;2023-03-23T17:20:10;16.20;76.50
20672;DHT22;10495;50.922;4.760;2023-03-23T17:22:40;16.20;76.70
20672;DHT22;10495;50.922;4.760;2023-03-23T17:25:06;16.20;76.40
20672;DHT22;10495;50.922;4.760;2023-03-23T17:27:33;16.30;76.30
20672;DHT22;10495;50.922;4.760;2023-03-23T17:29:59;16.30;76.40
20672;DHT22;10495;50.922;4.760;2023-03-23T17:32:24;16.40;75.90